sensor_id;sensor_type;location;lat;lon;timestamp;P1;durP1;ratioP1;P2;durP2;ratioP2
79375;SDS011;68846;53.150;18.136;2023-06-22T00:01:17;9.90;;;7.80;;
79375;SDS011;68846;53.150;18.136;2023-06-22T00:03:44;11.40;;;7.70;;
79375;SDS011;68846;53.150;18.136;2023-06-22T00:06:10;8.90;;;8.00;;
79375;SDS011;68846;53.150;18.136;2023-06-22T00:08:36;9.50;;;7.20;;
79375;SDS011;68846;53.150;18.136;2023-06-22T00:11:05;9.30;;;8.00;;
79375;SDS011;68846;53.150;18.136;2023-06-22T00:13:31;12.50;;;9.00;;
79375;SDS011;68846;53.150;18.136;2023-06-22T00:15:57;10.50;;;8.40;;
79375;SDS011;68846;53.150;18.136;2023-06-22T00:18:23;10.20;;;7.90;;
79375;SDS011;68846;53.150;18.136;2023-06-22T00:20:54;11.40;;;8.50;;
79375;SDS011;68846;53.150;18.136;2023-06-22T00:23:23;9.90;;;8.80;;
79375;SDS011;68846;53.150;18.136;2023-06-22T00:25:50;12.10;;;10.60;;
79375;SDS011;68846;53.150;18.136;2023-06-22T00:28:17;10.80;;;9.30;;
79375;SDS011;68846;53.150;18.136;2023-06-22T00:30:43;12.20;;;9.30;;
79375;SDS011;68846;53.150;18.136;2023-06-22T00:33:09;12.00;;;10.30;;
79375;SDS011;68846;53.150;18.136;2023-06-22T00:35:35;12.90;;;9.80;;
79375;SDS011;68846;53.150;18.136;2023-06-22T00:38:02;9.40;;;8.40;;
79375;SDS011;68846;53.150;18.136;2023-06-22T00:40:30;13.80;;;9.00;;
79375;SDS011;68846;53.150;18.136;2023-06-22T00:42:58;12.00;;;9.30;;
79375;SDS011;68846;53.150;18.136;2023-06-22T00:45:25;13.80;;;8.60;;
79375;SDS011;68846;53.150;18.136;2023-06-22T00:47:53;11.80;;;9.40;;
79375;SDS011;68846;53.150;18.136;2023-06-22T00:50:22;10.80;;;9.50;;
79375;SDS011;68846;53.150;18.136;2023-06-22T00:52:51;12.30;;;9.90;;
79375;SDS011;68846;53.150;18.136;2023-06-22T00:55:20;11.00;;;9.20;;
79375;SDS011;68846;53.150;18.136;2023-06-22T00:57:47;11.50;;;9.40;;
79375;SDS011;68846;53.150;18.136;2023-06-22T01:00:15;11.50;;;9.30;;
79375;SDS011;68846;53.150;18.136;2023-06-22T01:02:45;12.20;;;9.40;;
79375;SDS011;68846;53.150;18.136;2023-06-22T01:05:14;12.40;;;10.20;;
79375;SDS011;68846;53.150;18.136;2023-06-22T01:16:19;11.40;;;8.40;;
79375;SDS011;68846;53.150;18.136;2023-06-22T01:18:50;10.30;;;8.40;;
79375;SDS011;68846;53.150;18.136;2023-06-22T01:21:21;10.30;;;8.50;;
79375;SDS011;68846;53.150;18.136;2023-06-22T01:24:01;12.00;;;8.80;;
79375;SDS011;68846;53.150;18.136;2023-06-22T01:26:42;10.00;;;8.20;;
79375;SDS011;68846;53.150;18.136;2023-06-22T01:29:20;11.90;;;9.00;;
79375;SDS011;68846;53.150;18.136;2023-06-22T01:31:48;10.30;;;7.50;;
79375;SDS011;68846;53.150;18.136;2023-06-22T01:34:16;10.40;;;8.00;;
79375;SDS011;68846;53.150;18.136;2023-06-22T01:36:43;8.70;;;7.60;;
79375;SDS011;68846;53.150;18.136;2023-06-22T01:39:10;8.60;;;7.20;;
79375;SDS011;68846;53.150;18.136;2023-06-22T01:41:37;11.20;;;8.50;;
79375;SDS011;68846;53.150;18.136;2023-06-22T01:44:05;12.50;;;8.30;;
79375;SDS011;68846;53.150;18.136;2023-06-22T01:46:35;10.60;;;8.30;;
79375;SDS011;68846;53.150;18.136;2023-06-22T01:49:03;9.00;;;7.40;;
79375;SDS011;68846;53.150;18.136;2023-06-22T01:51:30;9.80;;;7.60;;
79375;SDS011;68846;53.150;18.136;2023-06-22T01:53:59;9.00;;;6.60;;
79375;SDS011;68846;53.150;18.136;2023-06-22T01:56:26;9.20;;;6.40;;
79375;SDS011;68846;53.150;18.136;2023-06-22T02:01:33;8.90;;;6.60;;
79375;SDS011;68846;53.150;18.136;2023-06-22T02:04:08;7.60;;;6.80;;
79375;SDS011;68846;53.150;18.136;2023-06-22T02:06:51;9.80;;;6.20;;
79375;SDS011;68846;53.150;18.136;2023-06-22T02:09:25;9.10;;;7.00;;
79375;SDS011;68846;53.150;18.136;2023-06-22T02:11:56;9.50;;;7.10;;
79375;SDS011;68846;53.150;18.136;2023-06-22T02:16:50;7.90;;;6.40;;
79375;SDS011;68846;53.150;18.136;2023-06-22T02:19:17;6.80;;;5.20;;
79375;SDS011;68846;53.150;18.136;2023-06-22T02:21:48;8.90;;;5.80;;
79375;SDS011;68846;53.150;18.136;2023-06-22T02:24:15;8.30;;;6.20;;
79375;SDS011;68846;53.150;18.136;2023-06-22T02:26:42;7.80;;;6.20;;
79375;SDS011;68846;53.150;18.136;2023-06-22T02:29:10;9.50;;;6.30;;
79375;SDS011;68846;53.150;18.136;2023-06-22T02:31:37;9.00;;;5.90;;
79375;SDS011;68846;53.150;18.136;2023-06-22T02:36:29;7.60;;;5.70;;
79375;SDS011;68846;53.150;18.136;2023-06-22T02:38:56;8.30;;;5.30;;
79375;SDS011;68846;53.150;18.136;2023-06-22T02:41:27;7.50;;;4.70;;
79375;SDS011;68846;53.150;18.136;2023-06-22T02:43:55;8.30;;;5.60;;
79375;SDS011;68846;53.150;18.136;2023-06-22T02:46:22;8.40;;;5.90;;
79375;SDS011;68846;53.150;18.136;2023-06-22T02:48:48;9.50;;;5.80;;
79375;SDS011;68846;53.150;18.136;2023-06-22T02:51:14;9.30;;;5.70;;
79375;SDS011;68846;53.150;18.136;2023-06-22T02:56:11;8.00;;;6.20;;
79375;SDS011;68846;53.150;18.136;2023-06-22T02:58:38;7.60;;;5.70;;
79375;SDS011;68846;53.150;18.136;2023-06-22T03:01:07;13.80;;;5.80;;
79375;SDS011;68846;53.150;18.136;2023-06-22T03:03:35;7.80;;;5.30;;
79375;SDS011;68846;53.150;18.136;2023-06-22T03:06:01;6.60;;;5.20;;
79375;SDS011;68846;53.150;18.136;2023-06-22T03:08:28;8.90;;;6.50;;
79375;SDS011;68846;53.150;18.136;2023-06-22T03:13:20;8.80;;;5.70;;
79375;SDS011;68846;53.150;18.136;2023-06-22T03:15:47;9.00;;;6.20;;
79375;SDS011;68846;53.150;18.136;2023-06-22T03:18:13;8.50;;;5.40;;
79375;SDS011;68846;53.150;18.136;2023-06-22T03:20:39;7.80;;;4.80;;
79375;SDS011;68846;53.150;18.136;2023-06-22T03:23:08;10.70;;;4.40;;
79375;SDS011;68846;53.150;18.136;2023-06-22T03:25:34;8.90;;;5.40;;
79375;SDS011;68846;53.150;18.136;2023-06-22T03:28:02;7.50;;;4.80;;
79375;SDS011;68846;53.150;18.136;2023-06-22T03:30:28;9.60;;;4.80;;
79375;SDS011;68846;53.150;18.136;2023-06-22T03:32:54;5.10;;;4.60;;
79375;SDS011;68846;53.150;18.136;2023-06-22T03:35:21;7.30;;;4.40;;
79375;SDS011;68846;53.150;18.136;2023-06-22T03:37:47;7.60;;;4.30;;
79375;SDS011;68846;53.150;18.136;2023-06-22T03:40:13;6.60;;;4.40;;
79375;SDS011;68846;53.150;18.136;2023-06-22T03:42:40;9.40;;;4.30;;
79375;SDS011;68846;53.150;18.136;2023-06-22T03:45:09;9.70;;;4.10;;
79375;SDS011;68846;53.150;18.136;2023-06-22T03:47:35;7.70;;;4.20;;
79375;SDS011;68846;53.150;18.136;2023-06-22T03:50:02;8.50;;;4.20;;
79375;SDS011;68846;53.150;18.136;2023-06-22T03:52:29;6.80;;;4.30;;
79375;SDS011;68846;53.150;18.136;2023-06-22T03:57:22;6.30;;;4.30;;
79375;SDS011;68846;53.150;18.136;2023-06-22T03:59:48;8.50;;;4.60;;
79375;SDS011;68846;53.150;18.136;2023-06-22T04:02:15;4.80;;;3.60;;
79375;SDS011;68846;53.150;18.136;2023-06-22T04:04:41;6.20;;;3.60;;
79375;SDS011;68846;53.150;18.136;2023-06-22T04:07:08;5.90;;;3.50;;
79375;SDS011;68846;53.150;18.136;2023-06-22T04:09:35;7.00;;;4.30;;
79375;SDS011;68846;53.150;18.136;2023-06-22T04:12:01;7.90;;;4.50;;
79375;SDS011;68846;53.150;18.136;2023-06-22T04:14:28;7.40;;;4.60;;
79375;SDS011;68846;53.150;18.136;2023-06-22T04:16:54;7.40;;;4.20;;
79375;SDS011;68846;53.150;18.136;2023-06-22T04:19:20;8.40;;;5.20;;
79375;SDS011;68846;53.150;18.136;2023-06-22T04:21:46;5.40;;;3.90;;
79375;SDS011;68846;53.150;18.136;2023-06-22T04:24:14;7.30;;;4.20;;
79375;SDS011;68846;53.150;18.136;2023-06-22T04:26:40;7.70;;;4.20;;
79375;SDS011;68846;53.150;18.136;2023-06-22T04:29:07;9.80;;;5.20;;
79375;SDS011;68846;53.150;18.136;2023-06-22T04:34:03;8.80;;;4.30;;
79375;SDS011;68846;53.150;18.136;2023-06-22T04:36:36;8.40;;;4.70;;
79375;SDS011;68846;53.150;18.136;2023-06-22T04:39:08;6.00;;;4.10;;
79375;SDS011;68846;53.150;18.136;2023-06-22T04:41:35;6.40;;;4.10;;
79375;SDS011;68846;53.150;18.136;2023-06-22T04:46:39;4.80;;;3.70;;
79375;SDS011;68846;53.150;18.136;2023-06-22T04:49:06;8.50;;;4.60;;
79375;SDS011;68846;53.150;18.136;2023-06-22T04:51:41;6.30;;;4.10;;
79375;SDS011;68846;53.150;18.136;2023-06-22T04:54:08;7.40;;;4.00;;
79375;SDS011;68846;53.150;18.136;2023-06-22T04:56:35;9.20;;;4.80;;
79375;SDS011;68846;53.150;18.136;2023-06-22T04:59:01;7.70;;;4.60;;
79375;SDS011;68846;53.150;18.136;2023-06-22T05:01:29;6.30;;;4.40;;
79375;SDS011;68846;53.150;18.136;2023-06-22T05:04:00;5.90;;;3.90;;
79375;SDS011;68846;53.150;18.136;2023-06-22T05:06:28;5.50;;;3.60;;
79375;SDS011;68846;53.150;18.136;2023-06-22T05:08:55;6.00;;;3.80;;
79375;SDS011;68846;53.150;18.136;2023-06-22T05:11:26;15.70;;;5.40;;
79375;SDS011;68846;53.150;18.136;2023-06-22T05:13:53;11.30;;;5.00;;
79375;SDS011;68846;53.150;18.136;2023-06-22T05:16:21;7.10;;;4.70;;
79375;SDS011;68846;53.150;18.136;2023-06-22T05:18:53;8.20;;;4.30;;
79375;SDS011;68846;53.150;18.136;2023-06-22T05:21:24;6.90;;;4.90;;
79375;SDS011;68846;53.150;18.136;2023-06-22T05:23:53;8.70;;;4.30;;
79375;SDS011;68846;53.150;18.136;2023-06-22T05:26:20;9.60;;;4.60;;
79375;SDS011;68846;53.150;18.136;2023-06-22T05:28:46;5.60;;;3.60;;
79375;SDS011;68846;53.150;18.136;2023-06-22T05:31:14;5.70;;;3.80;;
79375;SDS011;68846;53.150;18.136;2023-06-22T05:33:41;7.10;;;4.20;;
79375;SDS011;68846;53.150;18.136;2023-06-22T05:36:09;8.10;;;3.80;;
79375;SDS011;68846;53.150;18.136;2023-06-22T05:38:36;6.00;;;3.90;;
79375;SDS011;68846;53.150;18.136;2023-06-22T05:41:03;6.30;;;3.90;;
79375;SDS011;68846;53.150;18.136;2023-06-22T05:43:29;5.40;;;4.10;;
79375;SDS011;68846;53.150;18.136;2023-06-22T05:45:56;6.60;;;4.40;;
79375;SDS011;68846;53.150;18.136;2023-06-22T05:48:22;7.00;;;4.40;;
79375;SDS011;68846;53.150;18.136;2023-06-22T05:50:48;5.50;;;3.50;;
79375;SDS011;68846;53.150;18.136;2023-06-22T05:53:15;5.20;;;3.40;;
79375;SDS011;68846;53.150;18.136;2023-06-22T05:55:41;6.80;;;3.70;;
79375;SDS011;68846;53.150;18.136;2023-06-22T05:58:08;6.00;;;3.80;;
79375;SDS011;68846;53.150;18.136;2023-06-22T06:00:34;7.20;;;3.90;;
79375;SDS011;68846;53.150;18.136;2023-06-22T06:03:01;7.40;;;3.90;;
79375;SDS011;68846;53.150;18.136;2023-06-22T06:05:31;5.60;;;3.60;;
79375;SDS011;68846;53.150;18.136;2023-06-22T06:07:58;7.20;;;3.90;;
79375;SDS011;68846;53.150;18.136;2023-06-22T06:10:26;6.70;;;3.60;;
79375;SDS011;68846;53.150;18.136;2023-06-22T06:12:58;7.00;;;4.20;;
79375;SDS011;68846;53.150;18.136;2023-06-22T06:15:25;6.50;;;3.70;;
79375;SDS011;68846;53.150;18.136;2023-06-22T06:17:52;8.70;;;4.10;;
79375;SDS011;68846;53.150;18.136;2023-06-22T06:20:19;5.40;;;3.90;;
79375;SDS011;68846;53.150;18.136;2023-06-22T06:22:47;4.00;;;3.10;;
79375;SDS011;68846;53.150;18.136;2023-06-22T06:27:44;5.10;;;3.10;;
79375;SDS011;68846;53.150;18.136;2023-06-22T06:30:12;6.20;;;3.40;;
79375;SDS011;68846;53.150;18.136;2023-06-22T06:32:39;5.30;;;3.40;;
79375;SDS011;68846;53.150;18.136;2023-06-22T06:35:07;4.60;;;3.40;;
79375;SDS011;68846;53.150;18.136;2023-06-22T06:37:38;6.10;;;3.60;;
79375;SDS011;68846;53.150;18.136;2023-06-22T06:40:30;5.50;;;2.90;;
79375;SDS011;68846;53.150;18.136;2023-06-22T06:45:23;4.20;;;2.80;;
79375;SDS011;68846;53.150;18.136;2023-06-22T06:50:17;7.70;;;2.80;;
79375;SDS011;68846;53.150;18.136;2023-06-22T06:52:44;4.90;;;2.80;;
79375;SDS011;68846;53.150;18.136;2023-06-22T06:55:10;4.30;;;2.60;;
79375;SDS011;68846;53.150;18.136;2023-06-22T06:57:38;4.80;;;2.90;;
79375;SDS011;68846;53.150;18.136;2023-06-22T07:00:05;5.90;;;2.70;;
79375;SDS011;68846;53.150;18.136;2023-06-22T07:02:35;7.00;;;2.90;;
79375;SDS011;68846;53.150;18.136;2023-06-22T07:05:02;9.00;;;3.00;;
79375;SDS011;68846;53.150;18.136;2023-06-22T07:07:30;5.70;;;3.20;;
79375;SDS011;68846;53.150;18.136;2023-06-22T07:09:57;4.40;;;2.80;;
79375;SDS011;68846;53.150;18.136;2023-06-22T07:12:25;4.10;;;2.60;;
79375;SDS011;68846;53.150;18.136;2023-06-22T07:14:52;7.90;;;2.70;;
79375;SDS011;68846;53.150;18.136;2023-06-22T07:17:19;6.90;;;2.50;;
79375;SDS011;68846;53.150;18.136;2023-06-22T07:22:13;4.50;;;2.10;;
79375;SDS011;68846;53.150;18.136;2023-06-22T07:24:40;4.40;;;2.30;;
79375;SDS011;68846;53.150;18.136;2023-06-22T07:29:33;7.60;;;2.50;;
79375;SDS011;68846;53.150;18.136;2023-06-22T07:32:00;3.20;;;2.20;;
79375;SDS011;68846;53.150;18.136;2023-06-22T07:34:26;3.70;;;2.70;;
79375;SDS011;68846;53.150;18.136;2023-06-22T07:36:53;4.70;;;2.50;;
79375;SDS011;68846;53.150;18.136;2023-06-22T07:39:20;4.70;;;3.10;;
79375;SDS011;68846;53.150;18.136;2023-06-22T07:41:52;6.20;;;2.70;;
79375;SDS011;68846;53.150;18.136;2023-06-22T07:44:19;5.40;;;2.40;;
79375;SDS011;68846;53.150;18.136;2023-06-22T07:46:46;4.40;;;2.40;;
79375;SDS011;68846;53.150;18.136;2023-06-22T07:49:13;3.80;;;2.40;;
79375;SDS011;68846;53.150;18.136;2023-06-22T07:54:07;4.40;;;2.60;;
79375;SDS011;68846;53.150;18.136;2023-06-22T07:56:35;3.50;;;2.50;;
79375;SDS011;68846;53.150;18.136;2023-06-22T07:59:02;3.70;;;2.20;;
79375;SDS011;68846;53.150;18.136;2023-06-22T08:01:30;3.70;;;2.40;;
79375;SDS011;68846;53.150;18.136;2023-06-22T08:03:56;3.90;;;2.40;;
79375;SDS011;68846;53.150;18.136;2023-06-22T08:06:22;4.10;;;2.40;;
79375;SDS011;68846;53.150;18.136;2023-06-22T08:08:48;3.70;;;2.20;;
79375;SDS011;68846;53.150;18.136;2023-06-22T08:11:15;3.60;;;2.70;;
79375;SDS011;68846;53.150;18.136;2023-06-22T08:13:41;4.00;;;2.30;;
79375;SDS011;68846;53.150;18.136;2023-06-22T08:16:07;3.40;;;2.50;;
79375;SDS011;68846;53.150;18.136;2023-06-22T08:21:00;3.00;;;2.50;;
79375;SDS011;68846;53.150;18.136;2023-06-22T08:23:26;3.60;;;2.60;;
79375;SDS011;68846;53.150;18.136;2023-06-22T08:25:52;4.60;;;2.60;;
79375;SDS011;68846;53.150;18.136;2023-06-22T08:28:19;4.00;;;2.50;;
79375;SDS011;68846;53.150;18.136;2023-06-22T08:30:45;2.90;;;2.20;;
79375;SDS011;68846;53.150;18.136;2023-06-22T08:33:11;2.80;;;2.20;;
79375;SDS011;68846;53.150;18.136;2023-06-22T08:35:38;4.10;;;2.20;;
79375;SDS011;68846;53.150;18.136;2023-06-22T08:38:04;3.30;;;2.50;;
79375;SDS011;68846;53.150;18.136;2023-06-22T08:40:31;5.30;;;2.50;;
79375;SDS011;68846;53.150;18.136;2023-06-22T08:42:57;2.90;;;2.10;;
79375;SDS011;68846;53.150;18.136;2023-06-22T08:45:23;4.50;;;2.50;;
79375;SDS011;68846;53.150;18.136;2023-06-22T08:47:50;7.40;;;2.40;;
79375;SDS011;68846;53.150;18.136;2023-06-22T08:52:42;7.60;;;2.40;;
79375;SDS011;68846;53.150;18.136;2023-06-22T08:55:09;4.20;;;2.70;;
79375;SDS011;68846;53.150;18.136;2023-06-22T08:57:36;3.60;;;2.30;;
79375;SDS011;68846;53.150;18.136;2023-06-22T09:00:06;3.50;;;2.50;;
79375;SDS011;68846;53.150;18.136;2023-06-22T09:02:44;2.90;;;2.30;;
79375;SDS011;68846;53.150;18.136;2023-06-22T09:05:11;5.40;;;2.40;;
79375;SDS011;68846;53.150;18.136;2023-06-22T09:10:04;3.40;;;2.30;;
79375;SDS011;68846;53.150;18.136;2023-06-22T09:12:31;5.90;;;2.30;;
79375;SDS011;68846;53.150;18.136;2023-06-22T09:14:59;5.20;;;2.10;;
79375;SDS011;68846;53.150;18.136;2023-06-22T09:17:26;6.30;;;2.60;;
79375;SDS011;68846;53.150;18.136;2023-06-22T09:19:53;5.00;;;2.90;;
79375;SDS011;68846;53.150;18.136;2023-06-22T09:22:20;3.70;;;2.50;;
79375;SDS011;68846;53.150;18.136;2023-06-22T09:27:13;2.80;;;2.00;;
79375;SDS011;68846;53.150;18.136;2023-06-22T09:29:39;2.60;;;1.80;;
79375;SDS011;68846;53.150;18.136;2023-06-22T09:32:06;3.50;;;2.30;;
79375;SDS011;68846;53.150;18.136;2023-06-22T09:34:32;4.50;;;2.30;;
79375;SDS011;68846;53.150;18.136;2023-06-22T09:36:58;5.70;;;2.40;;
79375;SDS011;68846;53.150;18.136;2023-06-22T09:39:26;3.60;;;2.30;;
79375;SDS011;68846;53.150;18.136;2023-06-22T09:41:52;4.90;;;2.60;;
79375;SDS011;68846;53.150;18.136;2023-06-22T09:44:18;3.20;;;2.00;;
79375;SDS011;68846;53.150;18.136;2023-06-22T09:46:45;3.80;;;2.70;;
79375;SDS011;68846;53.150;18.136;2023-06-22T09:49:11;4.70;;;2.40;;
79375;SDS011;68846;53.150;18.136;2023-06-22T09:51:37;3.30;;;2.20;;
79375;SDS011;68846;53.150;18.136;2023-06-22T09:54:04;3.00;;;2.00;;
79375;SDS011;68846;53.150;18.136;2023-06-22T09:56:30;2.40;;;1.50;;
79375;SDS011;68846;53.150;18.136;2023-06-22T09:58:58;2.90;;;2.10;;
79375;SDS011;68846;53.150;18.136;2023-06-22T10:01:24;4.50;;;2.10;;
79375;SDS011;68846;53.150;18.136;2023-06-22T10:03:52;2.80;;;1.70;;
79375;SDS011;68846;53.150;18.136;2023-06-22T10:06:21;3.40;;;2.20;;
79375;SDS011;68846;53.150;18.136;2023-06-22T10:08:49;3.30;;;2.20;;
79375;SDS011;68846;53.150;18.136;2023-06-22T10:11:16;4.30;;;2.20;;
79375;SDS011;68846;53.150;18.136;2023-06-22T10:13:42;3.20;;;2.20;;
79375;SDS011;68846;53.150;18.136;2023-06-22T10:16:09;3.90;;;2.20;;
79375;SDS011;68846;53.150;18.136;2023-06-22T10:18:35;2.80;;;1.90;;
79375;SDS011;68846;53.150;18.136;2023-06-22T10:21:02;5.50;;;2.50;;
79375;SDS011;68846;53.150;18.136;2023-06-22T10:23:28;2.50;;;1.90;;
79375;SDS011;68846;53.150;18.136;2023-06-22T10:28:23;2.40;;;1.70;;
79375;SDS011;68846;53.150;18.136;2023-06-22T10:30:50;2.90;;;1.90;;
79375;SDS011;68846;53.150;18.136;2023-06-22T10:33:16;3.30;;;2.00;;
79375;SDS011;68846;53.150;18.136;2023-06-22T10:35:42;3.30;;;2.20;;
79375;SDS011;68846;53.150;18.136;2023-06-22T10:38:08;4.30;;;2.00;;
79375;SDS011;68846;53.150;18.136;2023-06-22T10:40:34;3.70;;;2.10;;
79375;SDS011;68846;53.150;18.136;2023-06-22T10:43:00;3.40;;;2.40;;
79375;SDS011;68846;53.150;18.136;2023-06-22T10:45:26;4.70;;;2.20;;
79375;SDS011;68846;53.150;18.136;2023-06-22T10:47:53;4.00;;;2.40;;
79375;SDS011;68846;53.150;18.136;2023-06-22T10:50:19;3.60;;;2.30;;
79375;SDS011;68846;53.150;18.136;2023-06-22T10:52:46;4.40;;;2.60;;
79375;SDS011;68846;53.150;18.136;2023-06-22T10:55:12;3.60;;;2.30;;
79375;SDS011;68846;53.150;18.136;2023-06-22T10:57:38;2.90;;;2.10;;
79375;SDS011;68846;53.150;18.136;2023-06-22T11:00:08;2.60;;;2.00;;
79375;SDS011;68846;53.150;18.136;2023-06-22T11:02:37;4.20;;;2.20;;
79375;SDS011;68846;53.150;18.136;2023-06-22T11:05:03;3.50;;;2.10;;
79375;SDS011;68846;53.150;18.136;2023-06-22T11:07:30;3.20;;;2.40;;
79375;SDS011;68846;53.150;18.136;2023-06-22T11:09:56;3.80;;;2.10;;
79375;SDS011;68846;53.150;18.136;2023-06-22T11:12:23;2.40;;;1.90;;
79375;SDS011;68846;53.150;18.136;2023-06-22T11:14:49;2.80;;;2.10;;
79375;SDS011;68846;53.150;18.136;2023-06-22T11:17:17;2.80;;;1.80;;
79375;SDS011;68846;53.150;18.136;2023-06-22T11:19:44;3.60;;;2.20;;
79375;SDS011;68846;53.150;18.136;2023-06-22T11:22:11;3.10;;;2.20;;
79375;SDS011;68846;53.150;18.136;2023-06-22T11:24:37;2.80;;;2.10;;
79375;SDS011;68846;53.150;18.136;2023-06-22T11:27:03;4.60;;;2.10;;
79375;SDS011;68846;53.150;18.136;2023-06-22T11:29:30;2.90;;;1.80;;
79375;SDS011;68846;53.150;18.136;2023-06-22T11:31:56;2.10;;;1.80;;
79375;SDS011;68846;53.150;18.136;2023-06-22T11:34:23;4.60;;;2.50;;
79375;SDS011;68846;53.150;18.136;2023-06-22T11:36:50;3.40;;;1.90;;
79375;SDS011;68846;53.150;18.136;2023-06-22T11:39:16;4.00;;;2.30;;
79375;SDS011;68846;53.150;18.136;2023-06-22T11:41:42;3.40;;;2.10;;
79375;SDS011;68846;53.150;18.136;2023-06-22T11:44:08;3.10;;;2.10;;
79375;SDS011;68846;53.150;18.136;2023-06-22T11:46:35;4.00;;;2.40;;
79375;SDS011;68846;53.150;18.136;2023-06-22T11:49:01;4.50;;;2.00;;
79375;SDS011;68846;53.150;18.136;2023-06-22T11:51:28;2.70;;;2.10;;
79375;SDS011;68846;53.150;18.136;2023-06-22T11:56:20;2.60;;;1.90;;
79375;SDS011;68846;53.150;18.136;2023-06-22T11:58:46;3.00;;;2.20;;
79375;SDS011;68846;53.150;18.136;2023-06-22T12:01:13;3.50;;;1.90;;
79375;SDS011;68846;53.150;18.136;2023-06-22T12:03:41;3.20;;;2.10;;
79375;SDS011;68846;53.150;18.136;2023-06-22T12:06:09;4.00;;;2.10;;
79375;SDS011;68846;53.150;18.136;2023-06-22T12:08:36;2.00;;;1.60;;
79375;SDS011;68846;53.150;18.136;2023-06-22T12:11:03;2.80;;;1.90;;
79375;SDS011;68846;53.150;18.136;2023-06-22T12:13:29;2.50;;;1.80;;
79375;SDS011;68846;53.150;18.136;2023-06-22T12:15:55;2.70;;;2.10;;
79375;SDS011;68846;53.150;18.136;2023-06-22T12:18:21;3.10;;;2.00;;
79375;SDS011;68846;53.150;18.136;2023-06-22T12:20:47;3.60;;;1.90;;
79375;SDS011;68846;53.150;18.136;2023-06-22T12:23:14;3.80;;;1.80;;
79375;SDS011;68846;53.150;18.136;2023-06-22T12:25:41;3.10;;;1.90;;
79375;SDS011;68846;53.150;18.136;2023-06-22T12:28:07;2.90;;;1.80;;
79375;SDS011;68846;53.150;18.136;2023-06-22T12:30:33;3.50;;;2.20;;
79375;SDS011;68846;53.150;18.136;2023-06-22T12:33:00;3.60;;;2.10;;
79375;SDS011;68846;53.150;18.136;2023-06-22T12:35:26;3.40;;;1.70;;
79375;SDS011;68846;53.150;18.136;2023-06-22T12:37:53;3.00;;;1.80;;
79375;SDS011;68846;53.150;18.136;2023-06-22T12:40:19;2.70;;;1.90;;
79375;SDS011;68846;53.150;18.136;2023-06-22T12:42:45;3.10;;;2.10;;
79375;SDS011;68846;53.150;18.136;2023-06-22T12:45:11;4.10;;;2.00;;
79375;SDS011;68846;53.150;18.136;2023-06-22T12:50:04;3.80;;;1.80;;
79375;SDS011;68846;53.150;18.136;2023-06-22T12:52:31;4.40;;;2.10;;
79375;SDS011;68846;53.150;18.136;2023-06-22T12:54:58;2.10;;;1.60;;
79375;SDS011;68846;53.150;18.136;2023-06-22T12:57:24;3.50;;;1.80;;
79375;SDS011;68846;53.150;18.136;2023-06-22T12:59:51;4.70;;;2.20;;
79375;SDS011;68846;53.150;18.136;2023-06-22T13:02:17;4.70;;;2.30;;
79375;SDS011;68846;53.150;18.136;2023-06-22T13:04:43;3.10;;;1.90;;
79375;SDS011;68846;53.150;18.136;2023-06-22T13:07:10;3.40;;;2.30;;
79375;SDS011;68846;53.150;18.136;2023-06-22T13:12:03;4.80;;;1.80;;
79375;SDS011;68846;53.150;18.136;2023-06-22T13:14:29;2.60;;;1.80;;
79375;SDS011;68846;53.150;18.136;2023-06-22T13:16:55;2.80;;;1.70;;
79375;SDS011;68846;53.150;18.136;2023-06-22T13:19:21;2.80;;;1.90;;
79375;SDS011;68846;53.150;18.136;2023-06-22T13:21:47;2.10;;;1.70;;
79375;SDS011;68846;53.150;18.136;2023-06-22T13:24:14;4.60;;;1.90;;
79375;SDS011;68846;53.150;18.136;2023-06-22T13:29:06;3.40;;;2.10;;
79375;SDS011;68846;53.150;18.136;2023-06-22T13:31:32;4.10;;;2.40;;
79375;SDS011;68846;53.150;18.136;2023-06-22T13:33:58;3.70;;;1.70;;
79375;SDS011;68846;53.150;18.136;2023-06-22T13:36:24;3.20;;;2.10;;
79375;SDS011;68846;53.150;18.136;2023-06-22T13:38:50;2.40;;;2.10;;
79375;SDS011;68846;53.150;18.136;2023-06-22T13:41:17;3.20;;;2.40;;
79375;SDS011;68846;53.150;18.136;2023-06-22T13:43:43;3.80;;;1.80;;
79375;SDS011;68846;53.150;18.136;2023-06-22T13:46:09;3.10;;;1.90;;
79375;SDS011;68846;53.150;18.136;2023-06-22T13:48:36;2.60;;;1.90;;
79375;SDS011;68846;53.150;18.136;2023-06-22T13:51:02;3.10;;;1.70;;
79375;SDS011;68846;53.150;18.136;2023-06-22T13:53:31;3.60;;;1.80;;
79375;SDS011;68846;53.150;18.136;2023-06-22T13:55:57;3.80;;;2.60;;
79375;SDS011;68846;53.150;18.136;2023-06-22T14:00:50;2.70;;;1.80;;
79375;SDS011;68846;53.150;18.136;2023-06-22T14:03:17;3.10;;;2.10;;
79375;SDS011;68846;53.150;18.136;2023-06-22T14:05:44;3.90;;;2.20;;
79375;SDS011;68846;53.150;18.136;2023-06-22T14:08:11;3.30;;;2.30;;
79375;SDS011;68846;53.150;18.136;2023-06-22T14:13:04;2.60;;;1.80;;
79375;SDS011;68846;53.150;18.136;2023-06-22T14:15:31;2.40;;;1.80;;
79375;SDS011;68846;53.150;18.136;2023-06-22T14:17:58;4.60;;;1.80;;
79375;SDS011;68846;53.150;18.136;2023-06-22T14:20:24;2.70;;;2.10;;
79375;SDS011;68846;53.150;18.136;2023-06-22T14:22:50;2.70;;;1.90;;
79375;SDS011;68846;53.150;18.136;2023-06-22T14:25:16;5.20;;;1.90;;
79375;SDS011;68846;53.150;18.136;2023-06-22T14:27:42;2.30;;;1.90;;
79375;SDS011;68846;53.150;18.136;2023-06-22T14:30:10;2.90;;;2.10;;
79375;SDS011;68846;53.150;18.136;2023-06-22T14:32:36;2.40;;;1.70;;
79375;SDS011;68846;53.150;18.136;2023-06-22T14:35:02;3.50;;;2.00;;
79375;SDS011;68846;53.150;18.136;2023-06-22T14:37:29;2.70;;;2.00;;
79375;SDS011;68846;53.150;18.136;2023-06-22T14:39:55;3.20;;;1.70;;
79375;SDS011;68846;53.150;18.136;2023-06-22T14:42:22;2.90;;;2.00;;
79375;SDS011;68846;53.150;18.136;2023-06-22T14:44:49;4.50;;;2.20;;
79375;SDS011;68846;53.150;18.136;2023-06-22T14:47:15;4.80;;;2.00;;
79375;SDS011;68846;53.150;18.136;2023-06-22T14:49:44;3.40;;;2.10;;
79375;SDS011;68846;53.150;18.136;2023-06-22T14:52:10;4.70;;;2.20;;
79375;SDS011;68846;53.150;18.136;2023-06-22T14:54:36;2.60;;;1.90;;
79375;SDS011;68846;53.150;18.136;2023-06-22T14:57:02;3.30;;;2.00;;
79375;SDS011;68846;53.150;18.136;2023-06-22T15:01:55;2.80;;;2.00;;
79375;SDS011;68846;53.150;18.136;2023-06-22T15:06:47;2.90;;;2.00;;
79375;SDS011;68846;53.150;18.136;2023-06-22T15:11:40;3.60;;;1.90;;
79375;SDS011;68846;53.150;18.136;2023-06-22T15:14:08;3.70;;;1.90;;
79375;SDS011;68846;53.150;18.136;2023-06-22T15:16:34;6.20;;;2.40;;
79375;SDS011;68846;53.150;18.136;2023-06-22T15:19:00;3.10;;;1.90;;
79375;SDS011;68846;53.150;18.136;2023-06-22T15:21:27;2.90;;;2.10;;
79375;SDS011;68846;53.150;18.136;2023-06-22T15:23:54;3.10;;;2.20;;
79375;SDS011;68846;53.150;18.136;2023-06-22T15:28:46;4.10;;;2.10;;
79375;SDS011;68846;53.150;18.136;2023-06-22T15:31:13;4.50;;;2.50;;
79375;SDS011;68846;53.150;18.136;2023-06-22T15:33:39;4.90;;;2.10;;
79375;SDS011;68846;53.150;18.136;2023-06-22T15:36:05;3.90;;;2.20;;
79375;SDS011;68846;53.150;18.136;2023-06-22T15:38:33;3.80;;;1.90;;
79375;SDS011;68846;53.150;18.136;2023-06-22T15:40:59;3.70;;;2.00;;
79375;SDS011;68846;53.150;18.136;2023-06-22T15:43:27;3.40;;;2.40;;
79375;SDS011;68846;53.150;18.136;2023-06-22T15:48:22;4.00;;;2.00;;
79375;SDS011;68846;53.150;18.136;2023-06-22T15:50:49;2.90;;;2.10;;
79375;SDS011;68846;53.150;18.136;2023-06-22T15:53:16;3.30;;;1.80;;
79375;SDS011;68846;53.150;18.136;2023-06-22T15:55:42;2.10;;;1.90;;